sensor_id;sensor_type;location;lat;lon;timestamp;pressure;altitude;pressure_sealevel;temperature;humidity
11099;BME280;12223;42.650;23.364;2023-03-25T00:01:32;94451.94;;;7.29;100.00
11099;BME280;12223;42.650;23.364;2023-03-25T00:04:00;94432.59;;;7.10;100.00
11099;BME280;12223;42.650;23.364;2023-03-25T00:06:28;94447.72;;;7.21;100.00
11099;BME280;12223;42.650;23.364;2023-03-25T00:08:56;94445.09;;;7.21;100.00
11099;BME280;12223;42.650;23.364;2023-03-25T00:11:23;94449.34;;;7.16;100.00
11099;BME280;12223;42.650;23.364;2023-03-25T00:13:50;94447.13;;;7.19;100.00
11099;BME280;12223;42.650;23.364;2023-03-25T00:16:19;94452.97;;;7.21;100.00
11099;BME280;12223;42.650;23.364;2023-03-25T00:18:46;94441.88;;;7.26;100.00
11099;BME280;12223;42.650;23.364;2023-03-25T00:21:14;94427.91;;;7.25;100.00
11099;BME280;12223;42.650;23.364;2023-03-25T00:23:43;94431.34;;;7.26;100.00
11099;BME280;12223;42.650;23.364;2023-03-25T00:26:11;94431.78;;;7.16;100.00
11099;BME280;12223;42.650;23.364;2023-03-25T00:28:38;94423.94;;;6.97;100.00
11099;BME280;12223;42.650;23.364;2023-03-25T00:31:07;94423.97;;;6.83;100.00
11099;BME280;12223;42.650;23.364;2023-03-25T00:33:35;94430.00;;;6.91;100.00
11099;BME280;12223;42.650;23.364;2023-03-25T00:36:02;94422.75;;;6.86;100.00
11099;BME280;12223;42.650;23.364;2023-03-25T00:38:31;94419.13;;;6.87;100.00
11099;BME280;12223;42.650;23.364;2023-03-25T00:41:10;94409.84;;;6.84;100.00
11099;BME280;12223;42.650;23.364;2023-03-25T00:43:37;94415.91;;;6.85;100.00
11099;BME280;12223;42.650;23.364;2023-03-25T00:46:04;94427.00;;;6.94;100.00
11099;BME280;12223;42.650;23.364;2023-03-25T00:48:32;94418.91;;;7.02;100.00
11099;BME280;12223;42.650;23.364;2023-03-25T00:51:01;94415.84;;;7.05;100.00
11099;BME280;12223;42.650;23.364;2023-03-25T00:53:32;94411.44;;;6.99;100.00
11099;BME280;12223;42.650;23.364;2023-03-25T00:55:59;94407.00;;;6.86;100.00
11099;BME280;12223;42.650;23.364;2023-03-25T00:58:27;94411.66;;;6.77;100.00
11099;BME280;12223;42.650;23.364;2023-03-25T01:00:53;94420.97;;;6.67;100.00
11099;BME280;12223;42.650;23.364;2023-03-25T01:03:21;94408.06;;;6.52;100.00
11099;BME280;12223;42.650;23.364;2023-03-25T01:05:48;94403.81;;;6.58;100.00
11099;BME280;12223;42.650;23.364;2023-03-25T01:08:16;94390.50;;;6.59;100.00
11099;BME280;12223;42.650;23.364;2023-03-25T01:10:44;94388.69;;;6.60;100.00
11099;BME280;12223;42.650;23.364;2023-03-25T01:13:10;94390.91;;;6.69;100.00
11099;BME280;12223;42.650;23.364;2023-03-25T01:15:38;94384.63;;;6.77;100.00
11099;BME280;12223;42.650;23.364;2023-03-25T01:18:05;94390.06;;;6.82;100.00
11099;BME280;12223;42.650;23.364;2023-03-25T01:20:32;94378.34;;;6.84;100.00
11099;BME280;12223;42.650;23.364;2023-03-25T01:22:59;94374.09;;;6.83;100.00
11099;BME280;12223;42.650;23.364;2023-03-25T01:25:27;94349.53;;;6.65;100.00
11099;BME280;12223;42.650;23.364;2023-03-25T01:27:55;94385.03;;;6.80;100.00
11099;BME280;12223;42.650;23.364;2023-03-25T01:30:22;94369.50;;;6.72;100.00
11099;BME280;12223;42.650;23.364;2023-03-25T01:32:48;94383.00;;;6.82;100.00
11099;BME280;12223;42.650;23.364;2023-03-25T01:35:15;94366.03;;;6.78;100.00
11099;BME280;12223;42.650;23.364;2023-03-25T01:37:42;94368.88;;;6.77;100.00
11099;BME280;12223;42.650;23.364;2023-03-25T01:40:17;94360.00;;;6.71;100.00
11099;BME280;12223;42.650;23.364;2023-03-25T01:42:46;94355.19;;;6.68;100.00
11099;BME280;12223;42.650;23.364;2023-03-25T01:45:25;94356.56;;;6.64;100.00
11099;BME280;12223;42.650;23.364;2023-03-25T01:48:03;94347.94;;;6.64;100.00
11099;BME280;12223;42.650;23.364;2023-03-25T01:50:33;94329.78;;;6.49;100.00
11099;BME280;12223;42.650;23.364;2023-03-25T01:53:02;94339.06;;;6.52;100.00
11099;BME280;12223;42.650;23.364;2023-03-25T01:55:32;94342.09;;;6.55;100.00
11099;BME280;12223;42.650;23.364;2023-03-25T01:58:05;94348.53;;;6.59;100.00
11099;BME280;12223;42.650;23.364;2023-03-25T02:00:36;94348.94;;;6.56;100.00
11099;BME280;12223;42.650;23.364;2023-03-25T02:03:03;94349.75;;;6.63;100.00
11099;BME280;12223;42.650;23.364;2023-03-25T02:05:36;94350.13;;;6.67;100.00
11099;BME280;12223;42.650;23.364;2023-03-25T02:08:05;94345.53;;;6.42;100.00
11099;BME280;12223;42.650;23.364;2023-03-25T02:10:34;94339.28;;;6.43;100.00
11099;BME280;12223;42.650;23.364;2023-03-25T02:13:04;94333.22;;;6.50;100.00
11099;BME280;12223;42.650;23.364;2023-03-25T02:15:40;94325.94;;;6.52;100.00
11099;BME280;12223;42.650;23.364;2023-03-25T02:18:25;94332.22;;;6.51;100.00
11099;BME280;12223;42.650;23.364;2023-03-25T02:24:22;94332.25;;;6.04;100.00
11099;BME280;12223;42.650;23.364;2023-03-25T02:27:16;94337.31;;;5.99;100.00
11099;BME280;12223;42.650;23.364;2023-03-25T02:36:18;94316.91;;;6.01;100.00
11099;BME280;12223;42.650;23.364;2023-03-25T02:38:59;94315.53;;;5.99;100.00
11099;BME280;12223;42.650;23.364;2023-03-25T02:41:36;94311.47;;;5.96;100.00
11099;BME280;12223;42.650;23.364;2023-03-25T02:44:07;94307.25;;;5.95;100.00
11099;BME280;12223;42.650;23.364;2023-03-25T02:46:40;94322.16;;;5.88;100.00
11099;BME280;12223;42.650;23.364;2023-03-25T02:49:12;94302.19;;;5.74;100.00
11099;BME280;12223;42.650;23.364;2023-03-25T02:51:45;94303.59;;;5.77;100.00
11099;BME280;12223;42.650;23.364;2023-03-25T02:54:18;94269.50;;;5.57;100.00
11099;BME280;12223;42.650;23.364;2023-03-25T02:56:48;94296.34;;;5.72;100.00
11099;BME280;12223;42.650;23.364;2023-03-25T02:59:22;94287.06;;;5.76;100.00
11099;BME280;12223;42.650;23.364;2023-03-25T03:01:55;94275.75;;;5.76;100.00
11099;BME280;12223;42.650;23.364;2023-03-25T03:04:24;94277.56;;;5.82;100.00
11099;BME280;12223;42.650;23.364;2023-03-25T03:06:52;94281.84;;;5.89;100.00
11099;BME280;12223;42.650;23.364;2023-03-25T03:09:26;94273.97;;;5.89;100.00
11099;BME280;12223;42.650;23.364;2023-03-25T03:12:10;94285.69;;;5.93;100.00
11099;BME280;12223;42.650;23.364;2023-03-25T03:17:35;94275.19;;;5.80;100.00
11099;BME280;12223;42.650;23.364;2023-03-25T03:20:15;94280.00;;;5.83;100.00
11099;BME280;12223;42.650;23.364;2023-03-25T03:22:45;94281.44;;;5.86;100.00
11099;BME280;12223;42.650;23.364;2023-03-25T03:25:22;94284.25;;;5.84;100.00
11099;BME280;12223;42.650;23.364;2023-03-25T03:27:55;94276.81;;;5.88;100.00
11099;BME280;12223;42.650;23.364;2023-03-25T03:30:28;94288.91;;;5.95;100.00
11099;BME280;12223;42.650;23.364;2023-03-25T03:33:03;94268.34;;;5.92;100.00
11099;BME280;12223;42.650;23.364;2023-03-25T03:35:36;94287.69;;;5.98;100.00
11099;BME280;12223;42.650;23.364;2023-03-25T03:38:08;94274.59;;;5.91;100.00
11099;BME280;12223;42.650;23.364;2023-03-25T03:40:39;94299.59;;;5.94;100.00
11099;BME280;12223;42.650;23.364;2023-03-25T03:43:11;94282.84;;;5.75;100.00
11099;BME280;12223;42.650;23.364;2023-03-25T03:45:43;94297.13;;;5.59;100.00
11099;BME280;12223;42.650;23.364;2023-03-25T03:48:26;94307.19;;;5.49;100.00
11099;BME280;12223;42.650;23.364;2023-03-25T03:50:57;94295.91;;;5.36;100.00
11099;BME280;12223;42.650;23.364;2023-03-25T03:53:28;94282.81;;;5.36;100.00
11099;BME280;12223;42.650;23.364;2023-03-25T03:56:02;94272.72;;;5.33;100.00
11099;BME280;12223;42.650;23.364;2023-03-25T03:58:35;94282.38;;;5.32;100.00
11099;BME280;12223;42.650;23.364;2023-03-25T04:01:07;94272.13;;;5.31;100.00
11099;BME280;12223;42.650;23.364;2023-03-25T04:03:39;94271.91;;;5.39;100.00
11099;BME280;12223;42.650;23.364;2023-03-25T04:06:14;94277.75;;;5.28;100.00
11099;BME280;12223;42.650;23.364;2023-03-25T04:08:50;94270.69;;;5.21;100.00
11099;BME280;12223;42.650;23.364;2023-03-25T04:11:28;94269.88;;;5.21;100.00
11099;BME280;12223;42.650;23.364;2023-03-25T04:13:58;94268.47;;;5.25;100.00
11099;BME280;12223;42.650;23.364;2023-03-25T04:16:25;94268.09;;;5.35;100.00
11099;BME280;12223;42.650;23.364;2023-03-25T04:18:53;94275.16;;;5.41;100.00
11099;BME280;12223;42.650;23.364;2023-03-25T04:21:20;94267.91;;;5.43;100.00
11099;BME280;12223;42.650;23.364;2023-03-25T04:23:48;94278.41;;;5.49;100.00
11099;BME280;12223;42.650;23.364;2023-03-25T04:26:16;94265.09;;;5.51;100.00
11099;BME280;12223;42.650;23.364;2023-03-25T04:28:45;94260.66;;;5.51;100.00
11099;BME280;12223;42.650;23.364;2023-03-25T04:31:25;94278.59;;;5.54;100.00
11099;BME280;12223;42.650;23.364;2023-03-25T04:33:55;94280.41;;;5.54;100.00
11099;BME280;12223;42.650;23.364;2023-03-25T04:36:22;94268.50;;;5.58;100.00
11099;BME280;12223;42.650;23.364;2023-03-25T04:38:49;94280.00;;;5.70;100.00
11099;BME280;12223;42.650;23.364;2023-03-25T04:41:17;94276.00;;;5.81;100.00
11099;BME280;12223;42.650;23.364;2023-03-25T04:43:45;94294.13;;;5.95;100.00
11099;BME280;12223;42.650;23.364;2023-03-25T04:46:13;94298.16;;;6.18;100.00
11099;BME280;12223;42.650;23.364;2023-03-25T04:48:41;94274.25;;;6.65;100.00
11099;BME280;12223;42.650;23.364;2023-03-25T04:51:10;94340.66;;;7.93;100.00
11099;BME280;12223;42.650;23.364;2023-03-25T04:53:38;94354.72;;;9.16;100.00
11099;BME280;12223;42.650;23.364;2023-03-25T04:56:07;94357.69;;;10.39;100.00
11099;BME280;12223;42.650;23.364;2023-03-25T04:58:40;94376.56;;;11.41;100.00
11099;BME280;12223;42.650;23.364;2023-03-25T05:01:14;94377.59;;;12.20;94.68
11099;BME280;12223;42.650;23.364;2023-03-25T05:03:44;94352.41;;;13.06;80.98
11099;BME280;12223;42.650;23.364;2023-03-25T05:06:15;94374.41;;;13.66;73.06
11099;BME280;12223;42.650;23.364;2023-03-25T05:08:42;94365.00;;;14.02;67.55
11099;BME280;12223;42.650;23.364;2023-03-25T05:11:08;94354.28;;;13.92;65.02
11099;BME280;12223;42.650;23.364;2023-03-25T05:13:35;94368.41;;;13.98;65.26
11099;BME280;12223;42.650;23.364;2023-03-25T05:16:02;94371.06;;;13.98;66.23
11099;BME280;12223;42.650;23.364;2023-03-25T05:18:30;94368.72;;;14.28;64.29
11099;BME280;12223;42.650;23.364;2023-03-25T05:20:57;94356.03;;;14.67;62.66
11099;BME280;12223;42.650;23.364;2023-03-25T05:23:27;94363.25;;;15.56;59.20
11099;BME280;12223;42.650;23.364;2023-03-25T05:25:56;94364.56;;;16.56;53.94
11099;BME280;12223;42.650;23.364;2023-03-25T05:28:22;94365.84;;;17.35;50.32
11099;BME280;12223;42.650;23.364;2023-03-25T05:30:49;94370.56;;;18.32;47.75
11099;BME280;12223;42.650;23.364;2023-03-25T05:33:16;94336.16;;;19.70;44.12
11099;BME280;12223;42.650;23.364;2023-03-25T05:35:45;94362.44;;;21.50;39.58
11099;BME280;12223;42.650;23.364;2023-03-25T05:38:12;94360.81;;;22.81;36.37
11099;BME280;12223;42.650;23.364;2023-03-25T05:40:42;94367.19;;;24.00;34.11
11099;BME280;12223;42.650;23.364;2023-03-25T05:43:10;94364.28;;;24.79;32.22
11099;BME280;12223;42.650;23.364;2023-03-25T05:45:37;94358.88;;;25.31;30.76
11099;BME280;12223;42.650;23.364;2023-03-25T05:48:04;94365.56;;;25.33;30.64
11099;BME280;12223;42.650;23.364;2023-03-25T05:50:32;94372.25;;;25.27;30.06
11099;BME280;12223;42.650;23.364;2023-03-25T05:53:01;94362.91;;;25.80;29.53
11099;BME280;12223;42.650;23.364;2023-03-25T05:55:28;94369.22;;;26.51;28.82
11099;BME280;12223;42.650;23.364;2023-03-25T05:57:55;94353.16;;;27.29;27.42
11099;BME280;12223;42.650;23.364;2023-03-25T06:00:23;94373.66;;;28.08;25.90
11099;BME280;12223;42.650;23.364;2023-03-25T06:02:49;94377.38;;;28.64;25.14
11099;BME280;12223;42.650;23.364;2023-03-25T06:05:17;94363.53;;;29.34;24.67
11099;BME280;12223;42.650;23.364;2023-03-25T06:07:48;94363.25;;;30.29;23.46
11099;BME280;12223;42.650;23.364;2023-03-25T06:10:17;94367.06;;;30.75;22.88
11099;BME280;12223;42.650;23.364;2023-03-25T06:12:45;94369.50;;;31.35;21.89
11099;BME280;12223;42.650;23.364;2023-03-25T06:15:14;94364.88;;;31.39;21.81
11099;BME280;12223;42.650;23.364;2023-03-25T06:17:42;94359.44;;;31.20;21.11
11099;BME280;12223;42.650;23.364;2023-03-25T06:20:11;94357.19;;;31.06;21.03
11099;BME280;12223;42.650;23.364;2023-03-25T06:22:42;94359.66;;;31.11;21.26
11099;BME280;12223;42.650;23.364;2023-03-25T06:25:11;94358.53;;;30.77;20.99
11099;BME280;12223;42.650;23.364;2023-03-25T06:27:40;94354.66;;;30.97;21.32
11099;BME280;12223;42.650;23.364;2023-03-25T06:30:08;94356.09;;;30.72;20.91
11099;BME280;12223;42.650;23.364;2023-03-25T06:32:36;94366.66;;;30.58;20.91
11099;BME280;12223;42.650;23.364;2023-03-25T06:35:04;94365.22;;;29.54;21.90
11099;BME280;12223;42.650;23.364;2023-03-25T06:37:32;94364.69;;;28.81;22.54
11099;BME280;12223;42.650;23.364;2023-03-25T06:40:00;94360.53;;;27.98;23.58
11099;BME280;12223;42.650;23.364;2023-03-25T06:42:27;94363.75;;;26.80;24.55
11099;BME280;12223;42.650;23.364;2023-03-25T06:44:55;94367.78;;;24.62;27.03
11099;BME280;12223;42.650;23.364;2023-03-25T06:47:22;94364.47;;;22.85;30.37
11099;BME280;12223;42.650;23.364;2023-03-25T06:49:49;94373.75;;;21.01;34.51
11099;BME280;12223;42.650;23.364;2023-03-25T06:52:16;94374.88;;;19.59;37.89
11099;BME280;12223;42.650;23.364;2023-03-25T06:54:43;94381.81;;;19.02;39.76
11099;BME280;12223;42.650;23.364;2023-03-25T06:57:10;94365.38;;;18.02;41.83
11099;BME280;12223;42.650;23.364;2023-03-25T06:59:36;94382.94;;;17.28;45.11
11099;BME280;12223;42.650;23.364;2023-03-25T07:02:05;94387.53;;;16.87;46.50
11099;BME280;12223;42.650;23.364;2023-03-25T07:04:32;94385.06;;;16.50;48.37
11099;BME280;12223;42.650;23.364;2023-03-25T07:06:59;94384.50;;;16.18;49.84
11099;BME280;12223;42.650;23.364;2023-03-25T07:09:26;94381.28;;;16.11;52.02
11099;BME280;12223;42.650;23.364;2023-03-25T07:11:54;94378.09;;;16.19;51.65
11099;BME280;12223;42.650;23.364;2023-03-25T07:14:23;94383.34;;;15.84;54.17
11099;BME280;12223;42.650;23.364;2023-03-25T07:16:52;94376.72;;;15.39;56.12
11099;BME280;12223;42.650;23.364;2023-03-25T07:19:21;94369.25;;;14.94;59.01
11099;BME280;12223;42.650;23.364;2023-03-25T07:21:47;94363.97;;;14.62;61.09
11099;BME280;12223;42.650;23.364;2023-03-25T07:24:14;94373.09;;;14.39;64.39
11099;BME280;12223;42.650;23.364;2023-03-25T07:26:41;94375.38;;;14.58;66.18
11099;BME280;12223;42.650;23.364;2023-03-25T07:29:08;94376.13;;;14.53;64.85
11099;BME280;12223;42.650;23.364;2023-03-25T07:31:35;94377.38;;;14.72;64.96
11099;BME280;12223;42.650;23.364;2023-03-25T07:34:01;94383.56;;;14.51;63.62
11099;BME280;12223;42.650;23.364;2023-03-25T07:36:31;94378.16;;;15.10;61.26
11099;BME280;12223;42.650;23.364;2023-03-25T07:38:58;94354.50;;;15.13;59.82
11099;BME280;12223;42.650;23.364;2023-03-25T07:41:25;94375.56;;;15.25;58.99
11099;BME280;12223;42.650;23.364;2023-03-25T07:43:52;94372.75;;;15.42;58.59
11099;BME280;12223;42.650;23.364;2023-03-25T07:46:19;94365.63;;;15.52;56.63
11099;BME280;12223;42.650;23.364;2023-03-25T07:48:46;94363.78;;;15.53;56.26
11099;BME280;12223;42.650;23.364;2023-03-25T07:51:13;94368.09;;;15.69;55.74
11099;BME280;12223;42.650;23.364;2023-03-25T07:53:41;94366.31;;;15.95;55.33
11099;BME280;12223;42.650;23.364;2023-03-25T07:56:09;94357.78;;;15.88;55.06
11099;BME280;12223;42.650;23.364;2023-03-25T07:58:36;94350.06;;;15.91;55.02
11099;BME280;12223;42.650;23.364;2023-03-25T08:01:13;94347.34;;;15.71;54.87
11099;BME280;12223;42.650;23.364;2023-03-25T08:03:43;94302.69;;;15.31;56.13
11099;BME280;12223;42.650;23.364;2023-03-25T08:06:10;94306.16;;;15.26;56.67
11099;BME280;12223;42.650;23.364;2023-03-25T08:08:37;94343.72;;;15.40;57.19
11099;BME280;12223;42.650;23.364;2023-03-25T08:11:08;94344.28;;;15.42;58.08
11099;BME280;12223;42.650;23.364;2023-03-25T08:13:35;94340.00;;;15.36;57.68
11099;BME280;12223;42.650;23.364;2023-03-25T08:16:09;94327.88;;;15.55;57.25
11099;BME280;12223;42.650;23.364;2023-03-25T08:18:36;94335.09;;;15.70;57.55
11099;BME280;12223;42.650;23.364;2023-03-25T08:21:04;94334.84;;;15.72;58.53
11099;BME280;12223;42.650;23.364;2023-03-25T08:23:31;94337.88;;;16.16;57.09
11099;BME280;12223;42.650;23.364;2023-03-25T08:26:01;94328.53;;;16.13;56.23
11099;BME280;12223;42.650;23.364;2023-03-25T08:28:31;94322.44;;;16.23;55.31
11099;BME280;12223;42.650;23.364;2023-03-25T08:30:58;94286.47;;;16.30;54.72
11099;BME280;12223;42.650;23.364;2023-03-25T08:33:27;94322.47;;;16.78;53.25
11099;BME280;12223;42.650;23.364;2023-03-25T08:35:59;94312.88;;;16.72;52.80
11099;BME280;12223;42.650;23.364;2023-03-25T08:38:26;94319.78;;;16.94;51.91
11099;BME280;12223;42.650;23.364;2023-03-25T08:40:56;94319.44;;;17.25;51.34
11099;BME280;12223;42.650;23.364;2023-03-25T08:43:23;94318.47;;;17.71;50.82
11099;BME280;12223;42.650;23.364;2023-03-25T08:45:51;94310.75;;;18.18;49.30
11099;BME280;12223;42.650;23.364;2023-03-25T08:48:18;94301.97;;;18.46;47.52
11099;BME280;12223;42.650;23.364;2023-03-25T08:50:45;94301.16;;;18.85;46.22
11099;BME280;12223;42.650;23.364;2023-03-25T08:53:12;94296.06;;;18.88;45.63
11099;BME280;12223;42.650;23.364;2023-03-25T08:55:39;94301.34;;;18.65;45.60
11099;BME280;12223;42.650;23.364;2023-03-25T08:58:06;94293.06;;;18.61;45.61
11099;BME280;12223;42.650;23.364;2023-03-25T09:00:33;94296.09;;;18.83;44.97
11099;BME280;12223;42.650;23.364;2023-03-25T09:03:04;94309.06;;;18.66;45.26
11099;BME280;12223;42.650;23.364;2023-03-25T09:05:37;94279.16;;;18.64;45.32
11099;BME280;12223;42.650;23.364;2023-03-25T09:08:06;94257.69;;;18.01;46.30
11099;BME280;12223;42.650;23.364;2023-03-25T09:10:34;94239.91;;;17.82;46.06
11099;BME280;12223;42.650;23.364;2023-03-25T09:13:00;94282.81;;;18.00;46.81
11099;BME280;12223;42.650;23.364;2023-03-25T09:15:27;94275.78;;;18.15;46.65
11099;BME280;12223;42.650;23.364;2023-03-25T09:17:54;94271.06;;;17.96;46.69
11099;BME280;12223;42.650;23.364;2023-03-25T09:20:24;94261.09;;;17.68;47.09
11099;BME280;12223;42.650;23.364;2023-03-25T09:22:50;94268.94;;;17.98;48.40
11099;BME280;12223;42.650;23.364;2023-03-25T09:25:17;94272.25;;;17.80;48.01
11099;BME280;12223;42.650;23.364;2023-03-25T09:27:44;94269.53;;;17.85;48.01
11099;BME280;12223;42.650;23.364;2023-03-25T09:30:12;94263.44;;;18.19;47.68
11099;BME280;12223;42.650;23.364;2023-03-25T09:32:39;94261.44;;;18.34;46.58
11099;BME280;12223;42.650;23.364;2023-03-25T09:35:07;94216.94;;;18.20;45.79
11099;BME280;12223;42.650;23.364;2023-03-25T09:37:35;94252.75;;;18.58;45.44
11099;BME280;12223;42.650;23.364;2023-03-25T09:40:03;94259.16;;;18.57;45.54
11099;BME280;12223;42.650;23.364;2023-03-25T09:42:39;94243.53;;;18.35;45.64
11099;BME280;12223;42.650;23.364;2023-03-25T09:45:19;94263.94;;;18.60;45.91
11099;BME280;12223;42.650;23.364;2023-03-25T09:47:53;94253.28;;;18.83;46.07
11099;BME280;12223;42.650;23.364;2023-03-25T09:50:22;94248.22;;;19.29;44.88
11099;BME280;12223;42.650;23.364;2023-03-25T09:52:54;94252.16;;;18.90;44.56
11099;BME280;12223;42.650;23.364;2023-03-25T09:55:25;94243.81;;;18.91;44.54
11099;BME280;12223;42.650;23.364;2023-03-25T09:57:56;94246.50;;;18.91;44.70
11099;BME280;12223;42.650;23.364;2023-03-25T10:00:26;94224.09;;;19.35;44.05
11099;BME280;12223;42.650;23.364;2023-03-25T10:02:59;94233.00;;;19.91;42.58
11099;BME280;12223;42.650;23.364;2023-03-25T10:05:49;94228.56;;;20.00;42.17
11099;BME280;12223;42.650;23.364;2023-03-25T10:08:29;94229.91;;;19.60;42.29
11099;BME280;12223;42.650;23.364;2023-03-25T10:11:05;94228.34;;;19.59;41.95
11099;BME280;12223;42.650;23.364;2023-03-25T10:13:41;94223.97;;;19.21;42.39
11099;BME280;12223;42.650;23.364;2023-03-25T10:16:19;94214.28;;;19.25;42.89
11099;BME280;12223;42.650;23.364;2023-03-25T10:18:57;94214.00;;;19.26;42.42
11099;BME280;12223;42.650;23.364;2023-03-25T10:21:33;94213.66;;;19.33;42.44
11099;BME280;12223;42.650;23.364;2023-03-25T10:24:12;94205.72;;;19.23;42.96
11099;BME280;12223;42.650;23.364;2023-03-25T10:26:44;94193.75;;;19.39;41.59
11099;BME280;12223;42.650;23.364;2023-03-25T10:29:16;94193.53;;;19.59;40.05
11099;BME280;12223;42.650;23.364;2023-03-25T10:31:49;94191.06;;;19.82;39.97
11099;BME280;12223;42.650;23.364;2023-03-25T10:34:19;94184.13;;;20.13;38.71
11099;BME280;12223;42.650;23.364;2023-03-25T10:36:52;94178.34;;;20.06;37.79
11099;BME280;12223;42.650;23.364;2023-03-25T10:39:25;94182.19;;;20.00;37.99
11099;BME280;12223;42.650;23.364;2023-03-25T10:42:00;94170.09;;;20.67;36.98
11099;BME280;12223;42.650;23.364;2023-03-25T10:44:29;94164.13;;;20.70;36.05
11099;BME280;12223;42.650;23.364;2023-03-25T10:46:57;94171.41;;;20.97;36.17
11099;BME280;12223;42.650;23.364;2023-03-25T10:49:29;94163.34;;;20.97;35.33
11099;BME280;12223;42.650;23.364;2023-03-25T10:51:57;94148.72;;;20.76;35.30
11099;BME280;12223;42.650;23.364;2023-03-25T10:54:27;94164.91;;;20.57;35.71
11099;BME280;12223;42.650;23.364;2023-03-25T10:56:58;94165.31;;;20.64;35.94
11099;BME280;12223;42.650;23.364;2023-03-25T10:59:30;94161.75;;;20.96;35.27
11099;BME280;12223;42.650;23.364;2023-03-25T11:02:03;94152.69;;;21.06;34.40
11099;BME280;12223;42.650;23.364;2023-03-25T11:04:40;94140.19;;;20.74;35.15
11099;BME280;12223;42.650;23.364;2023-03-25T11:07:15;94141.69;;;20.66;35.24
11099;BME280;12223;42.650;23.364;2023-03-25T11:09:46;94133.31;;;20.54;35.68
11099;BME280;12223;42.650;23.364;2023-03-25T11:12:17;94133.88;;;20.37;36.10
11099;BME280;12223;42.650;23.364;2023-03-25T11:14:53;94129.63;;;20.50;36.21
11099;BME280;12223;42.650;23.364;2023-03-25T11:17:21;94125.06;;;20.51;36.50
11099;BME280;12223;42.650;23.364;2023-03-25T11:19:52;94107.56;;;20.39;36.71
11099;BME280;12223;42.650;23.364;2023-03-25T11:22:22;94114.22;;;20.42;36.55
11099;BME280;12223;42.650;23.364;2023-03-25T11:24:57;94118.50;;;20.70;36.44
11099;BME280;12223;42.650;23.364;2023-03-25T11:27:26;94113.66;;;20.72;37.27
11099;BME280;12223;42.650;23.364;2023-03-25T11:29:58;94117.81;;;20.51;37.25
11099;BME280;12223;42.650;23.364;2023-03-25T11:32:34;94103.75;;;20.27;37.85
11099;BME280;12223;42.650;23.364;2023-03-25T11:35:06;94100.31;;;20.40;37.48
11099;BME280;12223;42.650;23.364;2023-03-25T11:37:36;94092.84;;;20.51;37.19
11099;BME280;12223;42.650;23.364;2023-03-25T11:40:13;94101.03;;;20.73;36.86
11099;BME280;12223;42.650;23.364;2023-03-25T11:42:43;94092.66;;;20.88;36.89
11099;BME280;12223;42.650;23.364;2023-03-25T11:45:19;94082.09;;;21.19;36.95
11099;BME280;12223;42.650;23.364;2023-03-25T11:47:46;94087.16;;;21.34;35.63
11099;BME280;12223;42.650;23.364;2023-03-25T11:50:20;94049.31;;;20.95;35.73
11099;BME280;12223;42.650;23.364;2023-03-25T11:52:48;94072.47;;;21.54;34.83
11099;BME280;12223;42.650;23.364;2023-03-25T11:55:23;94074.13;;;21.86;34.39
11099;BME280;12223;42.650;23.364;2023-03-25T11:57:53;94081.03;;;22.00;34.88
11099;BME280;12223;42.650;23.364;2023-03-25T12:00:32;94066.72;;;21.91;34.52
11099;BME280;12223;42.650;23.364;2023-03-25T12:03:03;94064.72;;;22.19;34.52
11099;BME280;12223;42.650;23.364;2023-03-25T12:05:30;94057.47;;;22.68;33.12
11099;BME280;12223;42.650;23.364;2023-03-25T12:08:08;94048.69;;;23.02;33.06
11099;BME280;12223;42.650;23.364;2023-03-25T12:10:51;94046.84;;;23.19;31.93
11099;BME280;12223;42.650;23.364;2023-03-25T12:13:38;94029.53;;;22.95;31.82
11099;BME280;12223;42.650;23.364;2023-03-25T12:16:16;94039.34;;;22.12;33.10
11099;BME280;12223;42.650;23.364;2023-03-25T12:18:59;94040.94;;;21.23;33.99
11099;BME280;12223;42.650;23.364;2023-03-25T12:21:41;94048.66;;;21.25;34.31
11099;BME280;12223;42.650;23.364;2023-03-25T12:24:21;94039.81;;;21.24;34.48
11099;BME280;12223;42.650;23.364;2023-03-25T12:27:08;94037.31;;;20.78;34.60
11099;BME280;12223;42.650;23.364;2023-03-25T12:29:41;94050.44;;;20.66;34.95
11099;BME280;12223;42.650;23.364;2023-03-25T12:32:19;94049.25;;;20.72;34.77
11099;BME280;12223;42.650;23.364;2023-03-25T12:35:02;94019.34;;;20.52;34.79
11099;BME280;12223;42.650;23.364;2023-03-25T12:37:43;94056.91;;;20.79;34.25
11099;BME280;12223;42.650;23.364;2023-03-25T12:40:28;94051.72;;;20.69;34.45
11099;BME280;12223;42.650;23.364;2023-03-25T12:43:03;94060.09;;;20.67;34.39
11099;BME280;12223;42.650;23.364;2023-03-25T12:45:39;94053.31;;;20.42;34.67
11099;BME280;12223;42.650;23.364;2023-03-25T12:48:18;94056.84;;;20.24;35.06
11099;BME280;12223;42.650;23.364;2023-03-25T12:50:56;94049.25;;;20.45;34.59
11099;BME280;12223;42.650;23.364;2023-03-25T12:53:44;94044.19;;;20.71;34.66
11099;BME280;12223;42.650;23.364;2023-03-25T12:56:28;94044.47;;;20.56;34.50
11099;BME280;12223;42.650;23.364;2023-03-25T12:59:24;94046.34;;;20.55;34.67
11099;BME280;12223;42.650;23.364;2023-03-25T13:02:00;94053.53;;;20.46;34.51
11099;BME280;12223;42.650;23.364;2023-03-25T13:04:48;94010.25;;;20.06;34.79
11099;BME280;12223;42.650;23.364;2023-03-25T13:07:21;94047.13;;;20.28;34.71
11099;BME280;12223;42.650;23.364;2023-03-25T13:09:56;94044.16;;;20.16;34.73
11099;BME280;12223;42.650;23.364;2023-03-25T13:12:31;94049.59;;;19.97;34.92
11099;BME280;12223;42.650;23.364;2023-03-25T13:15:05;94050.06;;;19.99;35.38
11099;BME280;12223;42.650;23.364;2023-03-25T13:17:37;94042.34;;;19.98;35.54
11099;BME280;12223;42.650;23.364;2023-03-25T13:20:09;94050.34;;;19.84;35.78
11099;BME280;12223;42.650;23.364;2023-03-25T13:22:39;93990.91;;;19.31;35.84